LiveATC.Net - Listen to live air traffic control over the Internet!


ICAO: LJPZ  IATA: POW   Airport: Portoroz Airport
City: Secovlje
Country: Slovenia   Continent: Europe
LJPZ METAR Weather: LJPZ 210430Z AUTO 13006KT 1400 R15/P2000 BR NSC 02/02 Q1027
LJPZ Flight Activity (FlightAware)

LJPZ Tower
Feed Status: DOWN
Last heard on: 2019-02-20 23:21:03 (0 days 5 hours 22 minutes ago)
LJPZ Tower Audio Archives
FacilityFrequency
Portoroz Tower124.875

NOTICE

Unauthorized use prohibited. See LiveATC.net Terms of Service


Find LiveATC Audio Streams


Airport/ARTCC Code

Frequency Search
(e.g., 124.400, 128.75)
Site-wide search
 


Browse LiveATC Feeds
Top 50 LiveATC Feeds
LiveATC Feed Map
Bad Weather Areas

LiveATC FAQ
Offer LiveATC feed
Contact LiveATC.net
Press Inquiries

LiveATC on iPhone
LiveATC on Android

Windows Phone
Windows 8/10

LiveATC Mobile
(Mobile browser)

ATC Audio Archives
Interesting Recordings

LiveATC Forums


Home Page
About LiveATC.net
Make a Donation
Terms of Use
Privacy Policy

Canadian Air Freqs

AIRMETs/SIGMETs

FAA Airport Status
Nat'l Airspace Status
Arrival Demand Charts


Server Software By:
Icecast.org
Liquidsoap